Time;durP1;ratioP1;P1;durP2;ratioP2;P2;SDS_P1;SDS_P2;PMS_P1;PMS_P2;Temp;Humidity;BMP_temperature;BMP_pressure;BME280_temperature;BME280_humidity;BME280_pressure;Samples;Min_cycle;Max_cycle;Signal;HPM_P1;HPM_P2
2022/12/18 00:00:46;;;;;;;21.92;17.80;;;10.60;1.00;;;;;;5015510;28;20129;-71
2022/12/18 00:03:13;;;;;;;19.15;16.77;;;10.50;1.00;;;;;;5015048;28;20034;-72
2022/12/18 00:05:46;;;;;;;21.27;18.70;;;10.40;1.00;;;;;;5017049;28;20365;-71
2022/12/18 00:08:12;;;;;;;23.38;17.75;;;10.40;1.00;;;;;;5034950;28;20064;-72
2022/12/18 00:10:38;;;;;;;25.70;19.60;;;10.50;1.00;;;;;;5034714;28;20073;-71
2022/12/18 00:13:03;;;;;;;26.67;20.23;;;10.50;1.00;;;;;;5034077;28;20091;-71
2022/12/18 00:15:29;;;;;;;25.17;19.90;;;10.50;1.00;;;;;;5034712;28;20029;-71
2022/12/18 00:17:57;;;;;;;25.25;20.10;;;10.50;1.00;;;;;;5032866;28;20080;-71
2022/12/18 00:20:25;;;;;;;30.27;21.55;;;10.50;1.00;;;;;;5033098;28;20030;-71
2022/12/18 00:22:52;;;;;;;28.65;20.38;;;10.50;1.00;;;;;;5034984;28;20049;-72
2022/12/18 00:25:18;;;;;;;28.48;21.40;;;10.50;1.00;;;;;;5033017;28;20049;-72
2022/12/18 00:27:44;;;;;;;27.13;21.58;;;10.50;1.00;;;;;;5034347;28;20728;-72
2022/12/18 00:30:10;;;;;;;28.10;19.65;;;10.40;1.00;;;;;;5027753;28;20034;-72
2022/12/18 00:32:36;;;;;;;29.35;21.05;;;10.40;1.00;;;;;;5014699;28;20030;-72
2022/12/18 00:35:01;;;;;;;35.78;24.40;;;10.40;1.00;;;;;;5014696;28;20105;-72
2022/12/18 00:37:27;;;;;;;26.60;21.05;;;10.40;1.00;;;;;;5030224;28;20050;-72
2022/12/18 00:39:53;;;;;;;25.67;21.13;;;10.40;1.00;;;;;;5013112;28;20480;-72
2022/12/18 00:45:03;;;;;;;23.67;19.23;;;10.50;1.00;;;;;;5014843;28;20041;-72
2022/12/18 00:47:28;;;;;;;25.65;19.48;;;10.50;1.00;;;;;;5014354;28;20030;-72
2022/12/18 00:49:57;;;;;;;24.60;18.63;;;10.40;1.00;;;;;;5014249;28;20037;-72
2022/12/18 00:52:22;;;;;;;22.02;18.02;;;10.40;1.00;;;;;;5013915;28;20037;-72
2022/12/18 00:54:48;;;;;;;29.15;20.50;;;10.40;1.00;;;;;;5033674;28;20055;-72
2022/12/18 00:57:14;;;;;;;33.55;22.65;;;10.40;1.00;;;;;;5034073;28;20025;-72
2022/12/18 00:59:39;;;;;;;37.70;25.10;;;10.40;1.00;;;;;;5034269;28;20025;-72
2022/12/18 01:02:05;;;;;;;41.78;26.10;;;10.30;1.00;;;;;;5033845;28;20116;-73
2022/12/18 01:04:34;;;;;;;41.45;26.55;;;10.00;1.00;;;;;;5019686;28;20463;-73
2022/12/18 01:06:59;;;;;;;43.53;26.77;;;10.10;1.00;;;;;;5012822;28;20435;-73
2022/12/18 01:09:25;;;;;;;43.13;26.92;;;10.10;1.00;;;;;;5014070;28;20037;-70
2022/12/18 01:11:51;;;;;;;43.53;25.42;;;10.20;1.00;;;;;;5012248;28;20038;-72
2022/12/18 01:14:17;;;;;;;41.22;26.10;;;10.10;1.00;;;;;;5014860;28;20369;-72
2022/12/18 01:16:42;;;;;;;40.10;24.98;;;10.10;1.00;;;;;;5013375;28;20212;-72
2022/12/18 01:19:08;;;;;;;50.45;27.42;;;10.10;1.00;;;;;;5014628;28;20065;-72
2022/12/18 01:21:34;;;;;;;44.38;25.83;;;10.00;1.00;;;;;;5013932;28;20030;-72
2022/12/18 01:23:59;;;;;;;45.47;26.98;;;10.00;1.00;;;;;;5013656;28;20079;-72
2022/12/18 01:26:29;;;;;;;46.20;28.20;;;10.00;1.00;;;;;;5013995;28;20103;-72
2022/12/18 01:28:56;;;;;;;47.63;29.08;;;10.00;1.00;;;;;;5019707;28;20056;-72
2022/12/18 01:31:27;;;;;;;43.17;27.27;;;9.90;1.00;;;;;;5033747;28;20025;-72
2022/12/18 01:33:53;;;;;;;45.70;28.42;;;9.90;1.00;;;;;;5033259;28;20038;-71
2022/12/18 01:36:31;;;;;;;39.15;26.50;;;9.70;1.00;;;;;;5033297;28;20057;-71
2022/12/18 01:39:00;;;;;;;47.63;29.85;;;9.80;1.00;;;;;;5032037;28;20040;-71
2022/12/18 01:42:01;;;;;;;47.47;30.58;;;9.50;1.00;;;;;;5033359;28;20063;-71
2022/12/18 01:44:48;;;;;;;49.75;31.95;;;9.60;1.00;;;;;;5020090;28;20435;-71
2022/12/18 01:47:36;;;;;;;48.67;29.80;;;9.50;1.00;;;;;;5013277;28;20599;-70
2022/12/18 01:50:16;;;;;;;46.42;30.30;;;9.60;1.00;;;;;;5013040;28;20415;-71
2022/12/18 01:52:46;;;;;;;47.50;30.05;;;9.50;1.00;;;;;;5013230;28;20045;-71
2022/12/18 01:55:13;;;;;;;49.97;30.40;;;9.50;1.00;;;;;;5013062;28;20022;-71
2022/12/18 01:57:41;;;;;;;50.42;32.50;;;9.40;1.00;;;;;;5014350;28;20417;-70
2022/12/18 02:00:19;;;;;;;51.83;32.40;;;9.40;1.00;;;;;;5033211;28;20026;-72
2022/12/18 02:02:46;;;;;;;51.22;30.92;;;9.20;1.00;;;;;;5031618;28;20032;-71
2022/12/18 02:05:18;;;;;;;47.15;30.10;;;9.20;1.00;;;;;;5030617;28;20032;-71
2022/12/18 02:08:01;;;;;;;49.72;32.20;;;9.40;1.00;;;;;;5032140;28;20037;-71
2022/12/18 02:10:31;;;;;;;52.83;31.88;;;9.40;1.00;;;;;;5025329;28;20399;-71
2022/12/18 02:13:14;;;;;;;57.33;34.03;;;9.30;1.00;;;;;;5011624;28;20053;-71
2022/12/18 02:15:52;;;;;;;51.33;32.85;;;9.30;1.00;;;;;;5012928;28;20026;-71
2022/12/18 02:18:38;;;;;;;53.22;33.67;;;9.30;1.00;;;;;;5012765;28;20049;-71
2022/12/18 02:22:05;;;;;;;51.70;30.60;;;9.20;1.00;;;;;;5012786;28;20034;-71
2022/12/18 02:25:05;;;;;;;57.23;33.50;;;9.40;1.00;;;;;;4978729;28;20527;-71
2022/12/18 02:27:33;;;;;;;57.10;33.10;;;9.10;1.00;;;;;;4991579;28;20154;-71
2022/12/18 02:30:17;;;;;;;52.47;31.97;;;9.10;1.00;;;;;;5013032;28;20049;-71
2022/12/18 02:32:51;;;;;;;60.27;34.53;;;9.30;1.00;;;;;;5011850;28;20044;-71
2022/12/18 02:35:23;;;;;;;53.92;34.22;;;9.40;1.00;;;;;;5012237;28;20308;-71
2022/12/18 02:37:49;;;;;;;50.47;31.73;;;9.20;1.00;;;;;;5012688;28;20026;-71
2022/12/18 02:40:17;;;;;;;53.53;32.57;;;9.30;1.00;;;;;;5012114;28;20502;-71
2022/12/18 02:42:42;;;;;;;53.72;32.50;;;9.40;1.00;;;;;;5011881;28;20025;-71
2022/12/18 02:45:08;;;;;;;54.00;32.57;;;9.40;1.00;;;;;;5011675;28;20091;-71
2022/12/18 02:47:37;;;;;;;58.55;33.78;;;9.40;1.00;;;;;;5011443;28;20873;-72
2022/12/18 02:50:22;;;;;;;57.03;33.30;;;9.20;1.00;;;;;;5011446;28;20061;-70
2022/12/18 02:52:51;;;;;;;58.25;33.20;;;9.40;1.00;;;;;;5011700;28;20440;-72
2022/12/18 02:55:40;;;;;;;55.03;33.53;;;9.20;1.00;;;;;;5010082;28;20026;-71
2022/12/18 02:58:41;;;;;;;74.17;37.47;;;9.10;1.00;;;;;;5012895;28;20042;-71
2022/12/18 03:01:27;;;;;;;56.43;33.13;;;9.20;1.00;;;;;;5011753;28;20464;-71
2022/12/18 03:04:02;;;;;;;62.55;35.08;;;9.30;1.00;;;;;;5012068;28;20371;-71
2022/12/18 03:06:49;;;;;;;65.78;36.67;;;9.10;1.00;;;;;;5012712;28;20140;-71
2022/12/18 03:09:24;;;;;;;60.17;34.67;;;9.00;1.00;;;;;;5012126;28;20487;-71
2022/12/18 03:14:53;;;;;;;55.50;34.23;;;9.10;1.00;;;;;;5012710;28;20042;-71
2022/12/18 03:17:26;;;;;;;58.63;34.83;;;9.10;1.00;;;;;;5012406;28;20379;-71
2022/12/18 03:19:54;;;;;;;60.60;34.70;;;9.10;1.00;;;;;;5012354;28;20113;-71
2022/12/18 03:22:22;;;;;;;56.25;34.00;;;9.20;1.00;;;;;;5012404;28;20034;-71
2022/12/18 03:24:49;;;;;;;56.97;35.13;;;9.20;1.00;;;;;;5023168;28;20041;-71
2022/12/18 03:27:18;;;;;;;55.60;33.42;;;9.10;1.00;;;;;;5032036;28;20418;-71
2022/12/18 03:29:56;;;;;;;58.33;32.60;;;9.30;1.00;;;;;;5031756;28;20475;-71
2022/12/18 03:32:28;;;;;;;47.70;30.10;;;9.20;1.00;;;;;;5031892;28;20037;-70
2022/12/18 03:34:58;;;;;;;49.70;30.47;;;9.20;1.00;;;;;;5034569;28;20033;-72
2022/12/18 03:37:27;;;;;;;52.00;31.67;;;9.20;1.00;;;;;;5035685;28;20485;-71
2022/12/18 03:39:52;;;;;;;57.33;31.83;;;9.30;1.00;;;;;;5016724;28;20038;-71
2022/12/18 03:42:51;;;;;;;53.75;32.45;;;9.30;1.00;;;;;;5015594;28;20104;-71
2022/12/18 03:45:29;;;;;;;61.33;34.43;;;9.00;1.00;;;;;;5015142;28;20336;-71
2022/12/18 03:48:12;;;;;;;59.23;34.87;;;8.90;1.00;;;;;;5015441;28;20030;-72
2022/12/18 03:50:49;;;;;;;59.85;34.38;;;9.00;1.00;;;;;;5015192;28;20044;-71
2022/12/18 03:53:32;;;;;;;74.65;38.28;;;9.10;1.00;;;;;;5022545;28;20317;-71
2022/12/18 03:56:03;;;;;;;63.10;34.03;;;9.10;1.00;;;;;;5035076;28;20077;-71
2022/12/18 03:58:32;;;;;;;74.17;37.40;;;9.10;1.00;;;;;;5035013;28;20128;-71
2022/12/18 04:01:01;;;;;;;73.18;37.15;;;9.20;1.00;;;;;;5034974;28;20100;-72
2022/12/18 04:03:28;;;;;;;67.90;36.07;;;9.20;1.00;;;;;;5034828;28;20036;-71
2022/12/18 04:05:56;;;;;;;64.85;34.20;;;9.20;1.00;;;;;;5034742;28;20479;-71
2022/12/18 04:08:23;;;;;;;70.40;37.87;;;9.20;1.00;;;;;;5023315;28;20084;-72
2022/12/18 04:10:49;;;;;;;89.60;42.00;;;9.20;1.00;;;;;;5015201;28;20443;-71
2022/12/18 04:13:27;;;;;;;69.23;35.80;;;9.20;1.00;;;;;;5014916;28;20032;-71
2022/12/18 04:15:53;;;;;;;74.68;36.15;;;9.20;1.00;;;;;;5014704;28;20030;-72
2022/12/18 04:18:19;;;;;;;71.93;38.00;;;9.20;1.00;;;;;;5014937;28;20502;-72
2022/12/18 04:20:45;;;;;;;82.30;37.30;;;9.20;1.00;;;;;;5015192;28;20099;-72
2022/12/18 04:23:11;;;;;;;84.40;41.70;;;9.20;1.00;;;;;;5015888;28;20478;-72
2022/12/18 04:25:37;;;;;;;78.23;39.60;;;9.10;1.00;;;;;;5014777;28;20152;-71
2022/12/18 04:28:02;;;;;;;76.53;38.05;;;9.10;1.00;;;;;;5015220;28;20073;-72
2022/12/18 04:30:28;;;;;;;72.07;38.67;;;9.10;1.00;;;;;;5015216;28;20032;-72
2022/12/18 04:32:54;;;;;;;80.00;39.38;;;9.20;1.00;;;;;;5014826;28;20494;-72
2022/12/18 04:35:19;;;;;;;78.57;41.17;;;9.20;1.00;;;;;;5029850;28;20060;-72
2022/12/18 04:37:45;;;;;;;80.60;37.83;;;9.20;1.00;;;;;;5031375;28;20423;-72
2022/12/18 04:40:11;;;;;;;75.00;39.30;;;9.20;1.00;;;;;;5034473;28;20085;-72
2022/12/18 04:42:38;;;;;;;75.35;39.03;;;9.30;1.00;;;;;;5034392;28;20109;-72
2022/12/18 04:45:04;;;;;;;79.63;37.17;;;9.10;1.00;;;;;;5033424;28;20021;-71
2022/12/18 04:47:30;;;;;;;80.20;40.10;;;9.10;1.00;;;;;;5022850;28;20032;-71
2022/12/18 04:49:56;;;;;;;77.90;37.17;;;9.20;1.00;;;;;;5014524;28;20034;-71
2022/12/18 04:52:22;;;;;;;85.27;40.13;;;9.10;1.00;;;;;;5014296;28;20038;-71
2022/12/18 04:54:47;;;;;;;78.25;39.03;;;9.10;1.00;;;;;;5017686;28;20068;-71
2022/12/18 04:57:13;;;;;;;75.33;35.57;;;9.10;1.00;;;;;;5014501;28;20114;-71
2022/12/18 04:59:39;;;;;;;73.30;36.63;;;9.20;1.00;;;;;;5014508;28;20427;-71
2022/12/18 05:02:04;;;;;;;61.15;33.22;;;9.10;1.00;;;;;;5014474;28;20043;-70
2022/12/18 05:04:30;;;;;;;65.18;33.38;;;9.20;1.00;;;;;;5014046;28;20505;-71
2022/12/18 05:06:59;;;;;;;66.33;35.53;;;9.20;1.00;;;;;;5014514;28;20391;-72
2022/12/18 05:09:29;;;;;;;77.70;38.75;;;9.20;1.00;;;;;;5012737;28;20034;-71
2022/12/18 05:11:55;;;;;;;73.30;37.17;;;9.20;1.00;;;;;;5012933;28;20180;-71
2022/12/18 05:14:20;;;;;;;65.57;34.88;;;9.20;1.00;;;;;;5014356;28;20061;-71
2022/12/18 05:16:46;;;;;;;62.63;35.70;;;9.10;1.00;;;;;;5014364;28;20523;-71
2022/12/18 05:19:12;;;;;;;79.32;38.97;;;9.10;1.00;;;;;;5033850;28;20467;-71
2022/12/18 05:21:38;;;;;;;77.50;39.28;;;9.00;1.00;;;;;;5033788;28;20029;-71
2022/12/18 05:24:04;;;;;;;80.13;41.00;;;9.10;1.00;;;;;;5033282;28;20108;-71
2022/12/18 05:26:29;;;;;;;73.93;37.63;;;9.00;1.00;;;;;;5033545;28;20033;-71
2022/12/18 05:28:56;;;;;;;71.23;35.47;;;8.90;1.00;;;;;;5018905;28;20092;-71
2022/12/18 05:31:22;;;;;;;77.60;38.27;;;9.00;1.00;;;;;;5014128;28;20026;-71
2022/12/18 05:33:49;;;;;;;66.50;35.63;;;8.90;1.00;;;;;;5014084;28;20464;-72
2022/12/18 05:36:15;;;;;;;71.27;38.07;;;8.80;1.00;;;;;;5013431;28;20117;-72
2022/12/18 05:38:41;;;;;;;64.40;34.33;;;9.00;1.00;;;;;;5012149;28;20061;-71
2022/12/18 05:41:07;;;;;;;70.47;37.20;;;9.00;1.00;;;;;;5013736;28;20030;-71
2022/12/18 05:43:34;;;;;;;73.43;36.70;;;8.90;1.00;;;;;;5013255;28;20034;-73
2022/12/18 05:46:05;;;;;;;79.37;39.20;;;9.00;1.00;;;;;;5013510;28;20172;-71
2022/12/18 05:48:30;;;;;;;75.50;37.77;;;9.00;1.00;;;;;;5016429;28;20427;-71
2022/12/18 05:51:04;;;;;;;73.05;38.78;;;8.90;1.00;;;;;;5032864;28;20025;-71
2022/12/18 05:53:30;;;;;;;73.30;38.60;;;9.00;1.00;;;;;;5032868;28;20033;-71
2022/12/18 05:56:00;;;;;;;75.23;38.83;;;9.10;1.00;;;;;;5032419;28;20017;-71
2022/12/18 05:58:26;;;;;;;75.17;37.63;;;9.10;1.00;;;;;;5020307;28;20018;-71
2022/12/18 06:00:51;;;;;;;70.37;36.13;;;9.10;1.00;;;;;;5012610;28;20163;-71
2022/12/18 06:03:17;;;;;;;82.50;38.07;;;9.10;1.00;;;;;;5011637;28;20014;-71
2022/12/18 06:05:44;;;;;;;73.75;37.92;;;9.00;1.00;;;;;;5012837;28;20120;-71
2022/12/18 06:08:11;;;;;;;72.20;39.20;;;9.10;1.00;;;;;;5012446;28;20026;-71
2022/12/18 06:10:40;;;;;;;71.97;39.23;;;9.10;1.00;;;;;;5012915;28;20137;-71
2022/12/18 06:13:07;;;;;;;72.20;36.03;;;9.00;1.00;;;;;;5012989;28;20030;-71
2022/12/18 06:15:36;;;;;;;71.77;37.77;;;9.00;1.00;;;;;;5013743;28;20597;-71
2022/12/18 06:18:02;;;;;;;80.97;38.63;;;9.00;1.00;;;;;;5013150;28;20029;-71
2022/12/18 06:20:30;;;;;;;68.18;36.75;;;9.00;1.00;;;;;;5013165;28;20149;-71
2022/12/18 06:22:56;;;;;;;73.63;37.05;;;9.10;1.00;;;;;;5012832;28;20029;-71
2022/12/18 06:25:21;;;;;;;83.68;40.53;;;9.00;1.00;;;;;;5012618;28;20479;-71
2022/12/18 06:27:47;;;;;;;70.28;36.05;;;9.00;1.00;;;;;;5012593;28;20053;-71
2022/12/18 06:30:14;;;;;;;75.32;38.17;;;9.00;1.00;;;;;;5014289;28;20764;-70
2022/12/18 06:32:39;;;;;;;81.13;41.95;;;9.00;1.00;;;;;;5032786;28;20021;-71
2022/12/18 06:35:05;;;;;;;77.13;38.60;;;9.10;1.00;;;;;;5032574;28;20516;-71
2022/12/18 06:37:31;;;;;;;78.78;38.53;;;9.00;1.00;;;;;;5031135;28;20136;-71
2022/12/18 06:39:57;;;;;;;80.82;38.20;;;9.10;1.00;;;;;;5032194;28;20232;-72
2022/12/18 06:42:23;;;;;;;81.47;40.90;;;9.00;1.00;;;;;;5032416;28;20036;-72
2022/12/18 06:44:49;;;;;;;78.68;39.10;;;9.10;1.00;;;;;;5045960;28;20029;-71
2022/12/18 06:47:15;;;;;;;76.40;38.57;;;8.90;1.00;;;;;;5012396;28;20052;-71
2022/12/18 06:49:40;;;;;;;72.53;38.23;;;9.00;1.00;;;;;;5012501;28;20045;-71
2022/12/18 06:52:06;;;;;;;80.50;37.23;;;9.00;1.00;;;;;;5012341;28;20026;-71
2022/12/18 06:54:31;;;;;;;84.60;40.37;;;8.80;1.00;;;;;;5012533;28;20049;-72
2022/12/18 06:56:57;;;;;;;83.47;39.40;;;8.90;1.00;;;;;;5012377;28;20018;-72
2022/12/18 06:59:23;;;;;;;81.77;38.50;;;8.90;1.00;;;;;;5012435;28;20058;-71
2022/12/18 07:01:49;;;;;;;80.82;38.83;;;8.80;1.00;;;;;;5012374;28;20026;-71
2022/12/18 07:04:14;;;;;;;82.83;40.17;;;8.90;1.00;;;;;;5012289;28;20033;-71
2022/12/18 07:06:40;;;;;;;74.80;36.90;;;8.90;1.00;;;;;;5012208;28;20030;-72
2022/12/18 07:09:05;;;;;;;87.40;39.53;;;8.90;1.00;;;;;;5012023;28;20549;-71
2022/12/18 07:11:33;;;;;;;82.18;37.88;;;8.90;1.00;;;;;;5030053;28;20104;-70
2022/12/18 07:14:01;;;;;;;75.57;37.90;;;9.00;1.00;;;;;;5035986;28;20021;-71
2022/12/18 07:16:30;;;;;;;71.53;34.13;;;8.90;1.00;;;;;;5034540;28;20128;-70
2022/12/18 07:18:56;;;;;;;80.90;38.23;;;8.90;1.00;;;;;;5034401;28;20028;-71
2022/12/18 07:21:23;;;;;;;69.50;35.13;;;8.80;1.00;;;;;;5035331;28;20037;-71
2022/12/18 07:23:52;;;;;;;71.43;37.37;;;8.90;1.00;;;;;;5035629;28;20532;-70
2022/12/18 07:26:19;;;;;;;77.83;36.60;;;9.00;1.00;;;;;;5034296;28;20447;-70
2022/12/18 07:28:46;;;;;;;72.60;36.43;;;8.90;1.00;;;;;;5034067;28;20510;-70
2022/12/18 07:31:14;;;;;;;90.10;38.70;;;9.00;1.00;;;;;;5035707;28;20029;-71
2022/12/18 07:33:40;;;;;;;76.45;37.28;;;8.90;1.00;;;;;;5035675;28;20144;-70
2022/12/18 07:36:08;;;;;;;72.72;34.40;;;8.70;1.00;;;;;;5033408;28;20084;-71
2022/12/18 07:38:34;;;;;;;75.00;37.23;;;8.80;1.00;;;;;;5035553;28;20032;-70
2022/12/18 07:41:11;;;;;;;68.50;33.23;;;8.90;1.00;;;;;;5034277;28;20024;-71
2022/12/18 07:43:38;;;;;;;73.80;35.73;;;8.90;1.00;;;;;;5035398;28;20472;-71
2022/12/18 07:46:05;;;;;;;72.60;35.23;;;8.90;1.00;;;;;;5035356;28;20379;-71
2022/12/18 07:48:31;;;;;;;74.97;35.93;;;9.00;1.00;;;;;;5035493;28;20045;-70
2022/12/18 07:51:06;;;;;;;79.63;35.83;;;9.00;1.00;;;;;;5024693;28;20490;-71
2022/12/18 07:53:33;;;;;;;72.73;34.00;;;8.80;1.00;;;;;;5015629;28;20034;-70
2022/12/18 07:56:01;;;;;;;65.50;34.30;;;8.80;1.00;;;;;;5014145;28;20080;-71
2022/12/18 07:58:28;;;;;;;67.33;33.87;;;9.00;1.00;;;;;;5030301;28;20500;-71
2022/12/18 08:00:53;;;;;;;64.20;32.33;;;9.00;1.00;;;;;;5015213;28;20349;-71
2022/12/18 08:03:19;;;;;;;63.23;33.10;;;9.00;1.00;;;;;;5015298;28;20021;-72
2022/12/18 08:05:45;;;;;;;62.88;32.17;;;9.00;1.00;;;;;;5015325;28;20034;-71
2022/12/18 08:08:11;;;;;;;72.30;33.43;;;8.80;1.00;;;;;;5030142;28;20479;-70
2022/12/18 08:10:37;;;;;;;67.20;34.07;;;8.90;1.00;;;;;;5013678;28;20076;-71
2022/12/18 08:13:03;;;;;;;76.70;34.17;;;8.90;1.00;;;;;;5030833;28;20340;-71
2022/12/18 08:15:29;;;;;;;77.63;35.43;;;8.80;1.00;;;;;;5015048;28;20025;-70
2022/12/18 08:17:57;;;;;;;76.10;35.47;;;8.90;1.00;;;;;;5015245;28;20101;-70
2022/12/18 08:20:23;;;;;;;81.03;36.63;;;8.90;1.00;;;;;;5014539;28;20120;-70
2022/12/18 08:22:48;;;;;;;73.37;37.37;;;8.90;1.00;;;;;;5014826;28;20584;-71
2022/12/18 08:25:14;;;;;;;67.53;34.53;;;8.90;1.00;;;;;;5014554;28;20395;-71
2022/12/18 08:27:40;;;;;;;57.80;31.07;;;8.90;1.00;;;;;;5014809;28;20109;-71
2022/12/18 08:30:06;;;;;;;64.20;34.08;;;9.10;1.00;;;;;;5014656;28;20061;-71
2022/12/18 08:32:32;;;;;;;69.68;35.05;;;9.10;1.00;;;;;;5014766;28;20443;-71
2022/12/18 08:34:58;;;;;;;60.33;32.10;;;9.10;1.00;;;;;;5014924;28;20077;-71
2022/12/18 08:37:24;;;;;;;59.60;31.45;;;9.20;1.00;;;;;;5014941;28;20061;-71
2022/12/18 08:39:50;;;;;;;61.13;31.27;;;9.30;1.00;;;;;;5014837;28;20061;-71
2022/12/18 08:45:00;;;;;;;68.07;32.60;;;9.40;1.00;;;;;;5014605;28;20037;-71
2022/12/18 08:47:26;;;;;;;63.15;31.98;;;9.20;1.00;;;;;;5014415;28;20120;-71
2022/12/18 08:49:52;;;;;;;57.10;32.80;;;9.10;1.00;;;;;;5014618;28;20049;-72
2022/12/18 08:52:18;;;;;;;58.78;31.85;;;9.30;1.00;;;;;;5014404;28;20041;-71
2022/12/18 08:54:45;;;;;;;62.30;31.77;;;9.30;1.00;;;;;;5014236;28;20025;-71
2022/12/18 08:57:11;;;;;;;59.92;31.88;;;9.40;1.00;;;;;;5014299;28;20444;-71
2022/12/18 08:59:55;;;;;;;59.75;32.33;;;9.40;1.00;;;;;;5014212;28;20120;-70
2022/12/18 09:02:20;;;;;;;56.75;31.00;;;9.50;1.00;;;;;;5014225;28;20432;-71
2022/12/18 09:04:49;;;;;;;56.95;30.38;;;9.60;1.00;;;;;;5014077;28;20084;-71
2022/12/18 09:07:14;;;;;;;48.92;29.90;;;9.50;1.00;;;;;;5014991;28;20122;-71
2022/12/18 09:09:42;;;;;;;53.08;29.38;;;9.60;1.00;;;;;;5014116;28;20141;-71
2022/12/18 09:12:07;;;;;;;56.33;30.83;;;9.70;1.00;;;;;;5014403;28;20026;-71
2022/12/18 09:14:33;;;;;;;55.63;31.05;;;9.60;1.00;;;;;;5014243;28;20034;-71
2022/12/18 09:16:59;;;;;;;58.30;31.40;;;9.70;1.00;;;;;;5016028;28;20491;-71
2022/12/18 09:19:24;;;;;;;58.78;32.05;;;9.80;1.00;;;;;;5033763;28;20065;-70
2022/12/18 09:21:50;;;;;;;59.05;32.75;;;9.70;1.00;;;;;;5034035;28;20037;-70
2022/12/18 09:24:16;;;;;;;59.25;33.00;;;9.70;1.00;;;;;;5032215;28;20450;-70
2022/12/18 09:26:42;;;;;;;57.38;31.30;;;9.70;1.00;;;;;;5033624;28;20068;-70
2022/12/18 09:29:08;;;;;;;56.13;31.50;;;9.90;1.00;;;;;;5015590;28;20400;-70
2022/12/18 09:31:34;;;;;;;56.43;30.63;;;10.00;1.00;;;;;;5012173;28;20105;-70
2022/12/18 09:34:00;;;;;;;56.63;32.90;;;9.90;1.00;;;;;;5012462;28;20026;-70
2022/12/18 09:36:26;;;;;;;59.90;33.78;;;10.00;1.00;;;;;;5013638;28;20022;-71
2022/12/18 09:38:52;;;;;;;54.97;30.55;;;9.80;1.00;;;;;;5013788;28;20026;-71
2022/12/18 09:41:40;;;;;;;55.17;30.85;;;9.90;1.00;;;;;;5012284;28;20033;-71
2022/12/18 09:44:38;;;;;;;53.35;31.58;;;9.90;1.00;;;;;;5013489;28;20418;-70
2022/12/18 09:47:23;;;;;;;50.22;29.85;;;10.10;1.00;;;;;;5013592;28;20068;-71
2022/12/18 09:50:13;;;;;;;52.50;31.20;;;10.00;1.00;;;;;;5027537;28;20042;-70
2022/12/18 09:52:46;;;;;;;51.92;30.90;;;10.00;1.00;;;;;;5033199;28;20025;-71
2022/12/18 09:55:41;;;;;;;58.45;30.98;;;10.10;1.00;;;;;;5033393;28;20388;-70
2022/12/18 09:58:17;;;;;;;55.17;31.83;;;10.20;1.00;;;;;;5032705;28;20026;-70
2022/12/18 10:00:43;;;;;;;55.80;31.70;;;10.30;1.00;;;;;;5013873;28;20042;-70
2022/12/18 10:03:14;;;;;;;56.88;31.60;;;10.00;1.00;;;;;;5028270;28;20097;-70
2022/12/18 10:05:54;;;;;;;58.55;33.40;;;9.90;1.00;;;;;;5032819;28;20033;-70
2022/12/18 10:08:29;;;;;;;51.47;32.00;;;9.80;1.00;;;;;;5032912;28;20060;-70
2022/12/18 10:11:28;;;;;;;51.40;31.05;;;9.80;1.00;;;;;;5031401;28;20065;-70
2022/12/18 10:14:03;;;;;;;53.90;31.45;;;9.90;1.00;;;;;;5027322;28;20036;-70
2022/12/18 10:16:47;;;;;;;44.15;28.02;;;9.90;1.00;;;;;;5013175;28;20025;-70
2022/12/18 10:19:39;;;;;;;52.63;30.13;;;10.10;1.00;;;;;;5013313;28;20037;-70
2022/12/18 10:22:29;;;;;;;53.78;32.60;;;10.00;1.00;;;;;;5013191;28;20037;-70
2022/12/18 10:25:16;;;;;;;51.60;30.98;;;10.10;1.00;;;;;;5012842;28;20387;-70
2022/12/18 10:27:41;;;;;;;53.58;31.95;;;10.20;1.00;;;;;;5013063;28;20064;-70
2022/12/18 10:30:20;;;;;;;51.28;29.92;;;10.00;1.00;;;;;;5013013;28;20037;-69
2022/12/18 10:32:46;;;;;;;48.72;30.73;;;10.00;1.00;;;;;;5013145;28;20026;-70
2022/12/18 10:35:20;;;;;;;53.55;31.10;;;10.10;1.00;;;;;;5012452;28;20495;-70
2022/12/18 10:38:26;;;;;;;52.03;30.85;;;10.00;1.00;;;;;;5028471;28;20499;-70
2022/12/18 10:41:02;;;;;;;49.67;29.88;;;10.00;1.00;;;;;;5031612;28;20034;-70
2022/12/18 10:43:30;;;;;;;57.90;32.63;;;9.90;1.00;;;;;;5031921;28;20096;-70
2022/12/18 10:46:11;;;;;;;50.33;31.15;;;10.00;1.00;;;;;;5032254;28;20030;-70
2022/12/18 10:48:56;;;;;;;47.85;29.25;;;10.10;1.00;;;;;;5011404;28;20456;-70
2022/12/18 10:51:27;;;;;;;46.50;29.27;;;10.10;1.00;;;;;;5012751;28;20026;-70
2022/12/18 10:54:02;;;;;;;53.83;31.20;;;10.20;1.00;;;;;;5012562;28;20034;-70
2022/12/18 10:56:30;;;;;;;50.90;31.48;;;10.10;1.00;;;;;;5011014;28;20026;-70
2022/12/18 10:59:04;;;;;;;50.20;31.88;;;10.20;1.00;;;;;;5012677;28;20042;-70
2022/12/18 11:01:48;;;;;;;50.77;32.03;;;10.00;1.00;;;;;;5012853;28;20022;-70
2022/12/18 11:04:39;;;;;;;46.40;29.58;;;10.00;1.00;;;;;;5012528;28;20738;-69
2022/12/18 11:07:08;;;;;;;51.97;31.13;;;10.10;1.00;;;;;;5010647;28;20048;-70
2022/12/18 11:09:42;;;;;;;55.13;32.55;;;10.00;1.00;;;;;;5012479;28;20120;-70
2022/12/18 11:12:18;;;;;;;46.42;31.30;;;10.00;1.00;;;;;;5012574;28;20061;-70
2022/12/18 11:14:50;;;;;;;49.38;30.75;;;10.20;1.00;;;;;;5012446;28;20026;-70
2022/12/18 11:17:30;;;;;;;49.78;30.13;;;10.00;1.00;;;;;;5012414;28;20045;-70
2022/12/18 11:22:27;;;;;;;46.47;29.83;;;9.90;1.00;;;;;;5024365;28;20029;-72
2022/12/18 11:25:06;;;;;;;45.17;28.67;;;9.90;1.00;;;;;;5030637;28;20114;-69
2022/12/18 11:27:33;;;;;;;40.97;26.63;;;9.90;1.00;;;;;;5031993;28;20025;-70
2022/12/18 11:30:29;;;;;;;42.63;26.20;;;9.90;1.00;;;;;;5030351;28;20060;-70
2022/12/18 11:32:56;;;;;;;38.80;26.45;;;9.80;1.00;;;;;;5032261;28;20034;-70
2022/12/18 11:35:38;;;;;;;37.63;26.27;;;9.70;1.00;;;;;;5032007;28;20025;-70
2022/12/18 11:38:25;;;;;;;39.88;26.95;;;9.70;1.00;;;;;;5032209;28;20037;-69
2022/12/18 11:41:21;;;;;;;39.35;26.67;;;9.90;1.00;;;;;;5032061;28;20108;-70
2022/12/18 11:43:58;;;;;;;41.63;28.48;;;10.00;1.00;;;;;;5020878;28;20428;-70
2022/12/18 11:46:39;;;;;;;40.67;28.25;;;9.90;1.00;;;;;;5012377;28;20468;-70
2022/12/18 11:49:28;;;;;;;41.17;27.67;;;9.70;1.00;;;;;;5012075;28;20133;-70
2022/12/18 11:52:00;;;;;;;41.03;26.17;;;9.80;1.00;;;;;;5031250;28;20029;-70
2022/12/18 11:54:25;;;;;;;46.70;30.42;;;9.70;1.00;;;;;;5031952;28;20355;-69
2022/12/18 11:56:58;;;;;;;41.72;28.77;;;9.80;1.00;;;;;;5033738;28;20033;-70
2022/12/18 11:59:42;;;;;;;45.67;27.83;;;9.80;1.00;;;;;;5035317;28;20025;-70
2022/12/18 12:02:35;;;;;;;48.85;30.17;;;9.90;1.00;;;;;;5035493;28;20029;-69
2022/12/18 12:05:19;;;;;;;44.60;28.35;;;9.90;1.00;;;;;;5030767;28;20022;-70
2022/12/18 12:08:02;;;;;;;47.35;30.20;;;9.90;1.00;;;;;;5015578;28;20026;-69
2022/12/18 12:10:54;;;;;;;48.17;30.88;;;9.90;1.00;;;;;;5021126;28;20045;-70
2022/12/18 12:13:47;;;;;;;45.95;30.05;;;9.90;1.00;;;;;;5031416;28;20044;-71
2022/12/18 12:16:36;;;;;;;42.72;27.40;;;9.90;1.00;;;;;;5035181;28;20494;-70
2022/12/18 12:19:30;;;;;;;39.47;26.13;;;9.70;1.00;;;;;;5035233;28;20029;-70
2022/12/18 12:22:17;;;;;;;46.15;29.38;;;9.70;1.00;;;;;;5035225;28;20030;-70
2022/12/18 12:25:22;;;;;;;46.97;31.30;;;9.70;1.00;;;;;;5034704;28;20033;-70
2022/12/18 12:27:54;;;;;;;48.65;32.53;;;9.80;1.00;;;;;;5034056;28;20545;-69
2022/12/18 12:30:30;;;;;;;51.50;33.55;;;9.80;1.00;;;;;;5034657;28;20117;-70
2022/12/18 12:33:08;;;;;;;53.97;36.83;;;9.80;1.00;;;;;;5034707;28;20466;-70
2022/12/18 12:35:52;;;;;;;53.22;35.95;;;9.80;1.00;;;;;;5028065;28;20026;-70
2022/12/18 12:38:45;;;;;;;57.13;36.15;;;9.90;1.00;;;;;;5015050;28;20028;-70
2022/12/18 12:44:04;;;;;;;56.90;37.60;;;10.10;1.00;;;;;;5014509;28;20069;-70
2022/12/18 12:46:33;;;;;;;59.78;36.85;;;10.00;1.00;;;;;;5014618;28;20064;-69
2022/12/18 12:49:04;;;;;;;61.22;38.20;;;10.20;1.00;;;;;;5014696;28;20167;-69
2022/12/18 12:51:36;;;;;;;60.15;37.83;;;10.30;1.00;;;;;;5013268;28;20041;-70
2022/12/18 12:54:11;;;;;;;64.43;39.78;;;10.20;1.00;;;;;;5014238;28;20030;-69
2022/12/18 12:56:43;;;;;;;;;;;10.40;1.00;;;;;;5023162;28;20471;-70
2022/12/18 12:59:45;;;;;;;63.55;41.15;;;10.20;1.00;;;;;;5034179;28;20320;-70
2022/12/18 13:02:39;;;;;;;66.22;41.75;;;10.50;1.00;;;;;;5034408;28;20044;-70
2022/12/18 13:05:31;;;;;;;61.20;40.50;;;10.40;1.00;;;;;;5034110;28;20033;-70
2022/12/18 13:08:09;;;;;;;63.53;41.28;;;10.60;1.00;;;;;;5031975;28;20021;-70
2022/12/18 13:10:40;;;;;;;57.10;40.10;;;10.60;1.00;;;;;;5032255;28;20528;-70
2022/12/18 13:13:09;;;;;;;58.28;37.63;;;10.60;1.00;;;;;;5012607;28;20306;-70
2022/12/18 13:15:48;;;;;;;56.20;37.85;;;10.60;1.00;;;;;;5014304;28;20096;-70
2022/12/18 13:18:22;;;;;;;58.33;38.92;;;10.60;1.00;;;;;;5014368;28;20029;-70
2022/12/18 13:20:48;;;;;;;51.72;35.92;;;10.60;1.00;;;;;;5014109;28;20030;-69
2022/12/18 13:23:28;;;;;;;55.58;37.90;;;10.70;1.00;;;;;;5015327;28;20026;-70